sensor_id;sensor_type;location;lat;lon;timestamp;pressure;altitude;pressure_sealevel;temperature;humidity
37298;BME280;30517;51.932;4.278;2023-04-09T00:01:54;102624.94;;;14.34;61.46
37298;BME280;30517;51.932;4.278;2023-04-09T00:04:35;102621.41;;;14.34;61.34
37298;BME280;30517;51.932;4.278;2023-04-09T00:07:16;102607.09;;;14.23;61.50
37298;BME280;30517;51.932;4.278;2023-04-09T00:09:56;102585.72;;;14.04;61.38
37298;BME280;30517;51.932;4.278;2023-04-09T00:12:37;102604.31;;;14.09;61.59
37298;BME280;30517;51.932;4.278;2023-04-09T00:15:18;102591.00;;;14.06;61.25
37298;BME280;30517;51.932;4.278;2023-04-09T00:17:59;102579.41;;;13.98;61.75
37298;BME280;30517;51.932;4.278;2023-04-09T00:20:40;102620.31;;;14.16;61.67
37298;BME280;30517;51.932;4.278;2023-04-09T00:23:21;102601.63;;;14.06;61.69
37298;BME280;30517;51.932;4.278;2023-04-09T00:26:02;102606.00;;;14.04;61.53
37298;BME280;30517;51.932;4.278;2023-04-09T00:28:43;102612.28;;;14.07;61.52
37298;BME280;30517;51.932;4.278;2023-04-09T00:31:24;102569.53;;;13.83;61.57
37298;BME280;30517;51.932;4.278;2023-04-09T00:34:05;102608.66;;;14.02;61.82
37298;BME280;30517;51.932;4.278;2023-04-09T00:36:46;102597.03;;;13.92;61.80
37298;BME280;30517;51.932;4.278;2023-04-09T00:39:26;102581.91;;;13.84;61.49
37298;BME280;30517;51.932;4.278;2023-04-09T00:42:07;102591.69;;;13.86;61.52
37298;BME280;30517;51.932;4.278;2023-04-09T00:44:48;102591.63;;;13.82;61.13
37298;BME280;30517;51.932;4.278;2023-04-09T00:47:29;102585.38;;;13.78;61.20
37298;BME280;30517;51.932;4.278;2023-04-09T00:50:11;102547.09;;;13.55;61.20
37298;BME280;30517;51.932;4.278;2023-04-09T00:52:52;102578.22;;;13.71;61.08
37298;BME280;30517;51.932;4.278;2023-04-09T00:55:33;102586.19;;;13.69;61.49
37298;BME280;30517;51.932;4.278;2023-04-09T00:58:15;102599.44;;;13.69;61.10
37298;BME280;30517;51.932;4.278;2023-04-09T01:00:56;102565.69;;;13.56;61.19
37298;BME280;30517;51.932;4.278;2023-04-09T01:03:37;102586.09;;;13.65;61.65
37298;BME280;30517;51.932;4.278;2023-04-09T01:06:36;102588.72;;;13.63;61.30
37298;BME280;30517;51.932;4.278;2023-04-09T01:10:04;102600.25;;;13.65;61.23
37298;BME280;30517;51.932;4.278;2023-04-09T01:13:12;102601.13;;;13.64;61.27
37298;BME280;30517;51.932;4.278;2023-04-09T01:15:58;102601.91;;;13.57;60.96
37298;BME280;30517;51.932;4.278;2023-04-09T01:18:49;102604.56;;;13.57;61.36
37298;BME280;30517;51.932;4.278;2023-04-09T01:21:33;102579.66;;;13.46;61.46
37298;BME280;30517;51.932;4.278;2023-04-09T01:24:21;102597.41;;;13.52;61.32
37298;BME280;30517;51.932;4.278;2023-04-09T01:27:10;102601.81;;;13.49;61.59
37298;BME280;30517;51.932;4.278;2023-04-09T01:29:53;102587.53;;;13.40;61.46
37298;BME280;30517;51.932;4.278;2023-04-09T01:32:36;102583.09;;;13.37;61.30
37298;BME280;30517;51.932;4.278;2023-04-09T01:35:18;102599.03;;;13.42;61.00
37298;BME280;30517;51.932;4.278;2023-04-09T01:38:00;102561.56;;;13.17;61.54
37298;BME280;30517;51.932;4.278;2023-04-09T01:40:43;102593.66;;;13.36;61.23
37298;BME280;30517;51.932;4.278;2023-04-09T01:43:25;102593.63;;;13.33;61.57
37298;BME280;30517;51.932;4.278;2023-04-09T01:46:07;102584.63;;;13.24;61.29
37298;BME280;30517;51.932;4.278;2023-04-09T01:48:49;102581.75;;;13.07;61.37
37298;BME280;30517;51.932;4.278;2023-04-09T01:51:31;102545.38;;;12.97;61.33
37298;BME280;30517;51.932;4.278;2023-04-09T01:54:12;102572.91;;;13.07;61.59
37298;BME280;30517;51.932;4.278;2023-04-09T01:56:56;102591.66;;;13.21;61.87
37298;BME280;30517;51.932;4.278;2023-04-09T01:59:37;102578.25;;;13.10;61.55
37298;BME280;30517;51.932;4.278;2023-04-09T02:02:24;102548.78;;;12.89;61.66
37298;BME280;30517;51.932;4.278;2023-04-09T02:05:09;102585.25;;;13.06;61.83
37298;BME280;30517;51.932;4.278;2023-04-09T02:07:53;102574.59;;;13.03;61.50
37298;BME280;30517;51.932;4.278;2023-04-09T02:10:37;102592.22;;;13.00;61.23
37298;BME280;30517;51.932;4.278;2023-04-09T02:13:19;102564.88;;;13.02;61.60
37298;BME280;30517;51.932;4.278;2023-04-09T02:16:00;102556.69;;;12.86;61.93
37298;BME280;30517;51.932;4.278;2023-04-09T02:18:41;102590.50;;;13.02;61.38
37298;BME280;30517;51.932;4.278;2023-04-09T02:21:23;102579.91;;;13.02;62.03
37298;BME280;30517;51.932;4.278;2023-04-09T02:24:04;102584.22;;;12.98;61.81
37298;BME280;30517;51.932;4.278;2023-04-09T02:26:45;102586.88;;;12.97;61.64
37298;BME280;30517;51.932;4.278;2023-04-09T02:29:25;102584.19;;;12.94;61.60
37298;BME280;30517;51.932;4.278;2023-04-09T02:32:06;102568.13;;;12.84;61.86
37298;BME280;30517;51.932;4.278;2023-04-09T02:34:47;102561.81;;;12.75;61.56
37298;BME280;30517;51.932;4.278;2023-04-09T02:37:28;102567.16;;;12.78;61.86
37298;BME280;30517;51.932;4.278;2023-04-09T02:40:09;102559.09;;;12.70;61.57
37298;BME280;30517;51.932;4.278;2023-04-09T02:42:51;102512.75;;;12.44;62.09
37298;BME280;30517;51.932;4.278;2023-04-09T02:45:32;102567.91;;;12.71;61.92
37298;BME280;30517;51.932;4.278;2023-04-09T02:48:13;102565.34;;;12.77;62.18
37298;BME280;30517;51.932;4.278;2023-04-09T02:50:55;102570.66;;;12.75;61.92
37298;BME280;30517;51.932;4.278;2023-04-09T02:53:36;102537.69;;;12.58;62.08
37298;BME280;30517;51.932;4.278;2023-04-09T02:56:19;102572.31;;;12.70;62.19
37298;BME280;30517;51.932;4.278;2023-04-09T02:59:00;102569.63;;;12.67;62.23
37298;BME280;30517;51.932;4.278;2023-04-09T03:01:41;102534.03;;;12.48;62.09
37298;BME280;30517;51.932;4.278;2023-04-09T03:04:22;102571.31;;;12.62;62.06
37298;BME280;30517;51.932;4.278;2023-04-09T03:07:02;102560.66;;;12.59;62.38
37298;BME280;30517;51.932;4.278;2023-04-09T03:09:43;102538.34;;;12.45;62.11
37298;BME280;30517;51.932;4.278;2023-04-09T03:12:24;102504.53;;;12.27;61.81
37298;BME280;30517;51.932;4.278;2023-04-09T03:15:05;102534.78;;;12.41;63.02
37298;BME280;30517;51.932;4.278;2023-04-09T03:17:46;102564.94;;;12.51;62.26
37298;BME280;30517;51.932;4.278;2023-04-09T03:20:27;102555.19;;;12.48;62.54
37298;BME280;30517;51.932;4.278;2023-04-09T03:23:09;102535.59;;;12.38;61.97
37298;BME280;30517;51.932;4.278;2023-04-09T03:25:59;102541.00;;;12.43;62.00
37298;BME280;30517;51.932;4.278;2023-04-09T03:28:40;102545.41;;;12.43;62.16
37298;BME280;30517;51.932;4.278;2023-04-09T03:31:21;102505.19;;;12.15;62.25
37298;BME280;30517;51.932;4.278;2023-04-09T03:34:01;102534.69;;;12.36;61.78
37298;BME280;30517;51.932;4.278;2023-04-09T03:36:42;102361.75;;;11.29;62.10
37298;BME280;30517;51.932;4.278;2023-04-09T03:39:23;102518.66;;;12.27;61.83
37298;BME280;30517;51.932;4.278;2023-04-09T03:42:04;102515.97;;;12.24;62.00
37298;BME280;30517;51.932;4.278;2023-04-09T03:44:45;102534.59;;;12.30;62.29
37298;BME280;30517;51.932;4.278;2023-04-09T03:47:25;102500.69;;;12.09;61.75
37298;BME280;30517;51.932;4.278;2023-04-09T03:50:06;102407.06;;;11.51;62.50
37298;BME280;30517;51.932;4.278;2023-04-09T03:52:47;102450.63;;;11.71;61.93
37298;BME280;30517;51.932;4.278;2023-04-09T03:55:28;102461.28;;;11.76;62.36
37298;BME280;30517;51.932;4.278;2023-04-09T03:58:09;102500.53;;;12.00;61.92
37298;BME280;30517;51.932;4.278;2023-04-09T04:00:50;102493.41;;;11.96;62.32
37298;BME280;30517;51.932;4.278;2023-04-09T04:03:31;102482.75;;;11.91;62.45
37298;BME280;30517;51.932;4.278;2023-04-09T04:06:11;102532.63;;;12.18;62.75
37298;BME280;30517;51.932;4.278;2023-04-09T04:08:52;102510.25;;;12.01;62.15
37298;BME280;30517;51.932;4.278;2023-04-09T04:11:33;102507.53;;;11.98;61.98
37298;BME280;30517;51.932;4.278;2023-04-09T04:14:14;102534.25;;;12.12;62.63
37298;BME280;30517;51.932;4.278;2023-04-09T04:16:55;102531.59;;;12.10;62.71
37298;BME280;30517;51.932;4.278;2023-04-09T04:19:36;102522.63;;;12.02;62.31
37298;BME280;30517;51.932;4.278;2023-04-09T04:22:17;102536.84;;;12.09;62.39
37298;BME280;30517;51.932;4.278;2023-04-09T04:24:57;102523.56;;;12.06;62.96
37298;BME280;30517;51.932;4.278;2023-04-09T04:27:41;102499.53;;;11.93;62.66
37298;BME280;30517;51.932;4.278;2023-04-09T04:30:22;102443.31;;;11.58;62.15
37298;BME280;30517;51.932;4.278;2023-04-09T04:33:03;102497.56;;;11.83;62.47
37298;BME280;30517;51.932;4.278;2023-04-09T04:35:44;102524.31;;;11.99;62.47
37298;BME280;30517;51.932;4.278;2023-04-09T04:38:26;102441.38;;;11.49;62.35
37298;BME280;30517;51.932;4.278;2023-04-09T04:41:07;102498.34;;;11.79;63.03
37298;BME280;30517;51.932;4.278;2023-04-09T04:43:49;102527.72;;;11.91;62.78
37298;BME280;30517;51.932;4.278;2023-04-09T04:46:30;102515.13;;;11.81;62.40
37298;BME280;30517;51.932;4.278;2023-04-09T04:49:11;102540.09;;;11.94;62.39
37298;BME280;30517;51.932;4.278;2023-04-09T04:51:52;102530.19;;;11.85;62.63
37298;BME280;30517;51.932;4.278;2023-04-09T04:54:33;102488.28;;;11.60;62.74
37298;BME280;30517;51.932;4.278;2023-04-09T04:57:14;102547.06;;;11.90;62.75
37298;BME280;30517;51.932;4.278;2023-04-09T04:59:54;102524.84;;;11.82;62.87
37298;BME280;30517;51.932;4.278;2023-04-09T05:02:35;102547.06;;;11.90;62.59
37298;BME280;30517;51.932;4.278;2023-04-09T05:05:16;102505.13;;;11.65;62.83
37298;BME280;30517;51.932;4.278;2023-04-09T05:07:57;102551.47;;;11.88;62.59
37298;BME280;30517;51.932;4.278;2023-04-09T05:10:41;102480.09;;;11.47;62.50
37298;BME280;30517;51.932;4.278;2023-04-09T05:13:22;102468.69;;;11.48;62.97
37298;BME280;30517;51.932;4.278;2023-04-09T05:16:04;102525.66;;;11.80;63.52
37298;BME280;30517;51.932;4.278;2023-04-09T05:18:45;102515.81;;;11.71;62.48
37298;BME280;30517;51.932;4.278;2023-04-09T05:21:26;102502.47;;;11.65;63.00
37298;BME280;30517;51.932;4.278;2023-04-09T05:24:07;102545.16;;;11.83;62.94
37298;BME280;30517;51.932;4.278;2023-04-09T05:26:48;102484.28;;;11.36;62.55
37298;BME280;30517;51.932;4.278;2023-04-09T05:29:28;102503.22;;;11.58;63.11
37298;BME280;30517;51.932;4.278;2023-04-09T05:32:09;102532.78;;;11.82;62.42
37298;BME280;30517;51.932;4.278;2023-04-09T05:34:50;102547.75;;;11.82;62.87
37298;BME280;30517;51.932;4.278;2023-04-09T05:37:31;102532.59;;;11.73;62.85
37298;BME280;30517;51.932;4.278;2023-04-09T05:40:15;102525.44;;;11.67;62.68
37298;BME280;30517;51.932;4.278;2023-04-09T05:42:55;102553.03;;;11.80;62.98
37298;BME280;30517;51.932;4.278;2023-04-09T05:45:36;102529.97;;;11.74;62.78
37298;BME280;30517;51.932;4.278;2023-04-09T05:48:17;102528.16;;;11.70;63.04
37298;BME280;30517;51.932;4.278;2023-04-09T05:51:00;102547.75;;;11.80;62.81
37298;BME280;30517;51.932;4.278;2023-04-09T05:53:41;102544.16;;;11.78;62.96
37298;BME280;30517;51.932;4.278;2023-04-09T05:56:21;102529.63;;;11.58;62.80
37298;BME280;30517;51.932;4.278;2023-04-09T05:59:05;102533.38;;;11.69;62.89
37298;BME280;30517;51.932;4.278;2023-04-09T06:01:46;102484.22;;;11.33;63.27
37298;BME280;30517;51.932;4.278;2023-04-09T06:04:27;102536.03;;;11.67;63.44
37298;BME280;30517;51.932;4.278;2023-04-09T06:07:08;102550.25;;;11.74;62.59
37298;BME280;30517;51.932;4.278;2023-04-09T06:09:49;102539.38;;;11.59;63.11
37298;BME280;30517;51.932;4.278;2023-04-09T06:12:33;102528.91;;;11.65;63.13
37298;BME280;30517;51.932;4.278;2023-04-09T06:15:14;102508.28;;;11.47;62.94
37298;BME280;30517;51.932;4.278;2023-04-09T06:17:55;102520.72;;;11.52;62.79
37298;BME280;30517;51.932;4.278;2023-04-09T06:20:36;102551.06;;;11.70;63.22
37298;BME280;30517;51.932;4.278;2023-04-09T06:23:17;102543.84;;;11.63;62.81
37298;BME280;30517;51.932;4.278;2023-04-09T06:25:58;102558.97;;;11.70;63.25
37298;BME280;30517;51.932;4.278;2023-04-09T06:28:40;102524.13;;;11.47;62.99
37298;BME280;30517;51.932;4.278;2023-04-09T06:31:21;102470.72;;;11.19;63.46
37298;BME280;30517;51.932;4.278;2023-04-09T06:34:02;102548.19;;;11.61;63.46
37298;BME280;30517;51.932;4.278;2023-04-09T06:36:43;102546.31;;;11.55;63.60
37298;BME280;30517;51.932;4.278;2023-04-09T06:39:24;102529.53;;;11.51;63.64
37298;BME280;30517;51.932;4.278;2023-04-09T06:42:05;102529.47;;;11.48;63.22
37298;BME280;30517;51.932;4.278;2023-04-09T06:44:46;102549.13;;;11.61;63.55
37298;BME280;30517;51.932;4.278;2023-04-09T06:47:27;102580.06;;;11.67;63.60
37298;BME280;30517;51.932;4.278;2023-04-09T06:50:07;102557.19;;;11.69;63.22
37298;BME280;30517;51.932;4.278;2023-04-09T06:52:49;102556.28;;;11.68;62.95
37298;BME280;30517;51.932;4.278;2023-04-09T06:55:30;102509.94;;;11.42;63.44
37298;BME280;30517;51.932;4.278;2023-04-09T06:58:11;102530.41;;;11.52;63.56
37298;BME280;30517;51.932;4.278;2023-04-09T07:00:52;102505.41;;;11.35;63.43
37298;BME280;30517;51.932;4.278;2023-04-09T07:03:36;102539.44;;;11.63;62.99
37298;BME280;30517;51.932;4.278;2023-04-09T07:06:17;102560.75;;;11.71;63.00
37298;BME280;30517;51.932;4.278;2023-04-09T07:08:58;102551.94;;;11.70;63.02
37298;BME280;30517;51.932;4.278;2023-04-09T07:11:38;102495.72;;;11.35;62.95
37298;BME280;30517;51.932;4.278;2023-04-09T07:14:19;102544.88;;;11.71;63.00
37298;BME280;30517;51.932;4.278;2023-04-09T07:17:00;102461.97;;;11.22;63.04
37298;BME280;30517;51.932;4.278;2023-04-09T07:19:41;102550.19;;;11.71;63.17
37298;BME280;30517;51.932;4.278;2023-04-09T07:22:23;102557.28;;;11.72;63.09
37298;BME280;30517;51.932;4.278;2023-04-09T07:25:06;102556.34;;;11.71;63.59
37298;BME280;30517;51.932;4.278;2023-04-09T07:27:47;102560.81;;;11.72;63.46
37298;BME280;30517;51.932;4.278;2023-04-09T07:30:28;102547.41;;;11.65;63.29
37298;BME280;30517;51.932;4.278;2023-04-09T07:33:09;102525.13;;;11.52;63.24
37298;BME280;30517;51.932;4.278;2023-04-09T07:35:50;102546.53;;;11.66;63.44
37298;BME280;30517;51.932;4.278;2023-04-09T07:38:31;102535.91;;;11.63;63.54
37298;BME280;30517;51.932;4.278;2023-04-09T07:41:12;102543.91;;;11.66;63.27
37298;BME280;30517;51.932;4.278;2023-04-09T07:43:53;102510.91;;;11.45;63.18
37298;BME280;30517;51.932;4.278;2023-04-09T07:46:34;102527.03;;;11.59;63.17
37298;BME280;30517;51.932;4.278;2023-04-09T07:49:15;102538.78;;;11.73;63.81
37298;BME280;30517;51.932;4.278;2023-04-09T07:51:57;102550.28;;;11.76;63.09
37298;BME280;30517;51.932;4.278;2023-04-09T07:54:38;102546.75;;;11.77;63.76
37298;BME280;30517;51.932;4.278;2023-04-09T07:57:19;102545.00;;;11.76;63.29
37298;BME280;30517;51.932;4.278;2023-04-09T08:00:00;102535.06;;;11.64;63.50
37298;BME280;30517;51.932;4.278;2023-04-09T08:02:42;102532.53;;;11.70;63.28
37298;BME280;30517;51.932;4.278;2023-04-09T08:05:23;102540.53;;;11.74;63.13
37298;BME280;30517;51.932;4.278;2023-04-09T08:08:04;102541.31;;;11.67;63.23
37298;BME280;30517;51.932;4.278;2023-04-09T08:10:45;102536.03;;;11.67;63.55
37298;BME280;30517;51.932;4.278;2023-04-09T08:13:26;102546.81;;;11.78;63.35
37298;BME280;30517;51.932;4.278;2023-04-09T08:16:07;102533.38;;;11.67;63.42
37298;BME280;30517;51.932;4.278;2023-04-09T08:18:49;102559.19;;;11.81;63.32
37298;BME280;30517;51.932;4.278;2023-04-09T08:21:30;102550.25;;;11.74;63.41
37298;BME280;30517;51.932;4.278;2023-04-09T08:24:11;102563.59;;;11.80;63.64
37298;BME280;30517;51.932;4.278;2023-04-09T08:26:52;102541.47;;;11.75;63.78
37298;BME280;30517;51.932;4.278;2023-04-09T08:29:33;102575.06;;;11.82;63.73
37298;BME280;30517;51.932;4.278;2023-04-09T08:32:14;102535.16;;;11.68;63.64
37298;BME280;30517;51.932;4.278;2023-04-09T08:34:55;102537.84;;;11.70;63.41
37298;BME280;30517;51.932;4.278;2023-04-09T08:37:36;102559.19;;;11.81;63.46
37298;BME280;30517;51.932;4.278;2023-04-09T08:40:17;102557.44;;;11.81;63.61
37298;BME280;30517;51.932;4.278;2023-04-09T08:42:58;102539.59;;;11.71;63.71
37298;BME280;30517;51.932;4.278;2023-04-09T08:45:40;102553.91;;;11.81;63.76
37298;BME280;30517;51.932;4.278;2023-04-09T08:48:21;102558.38;;;11.83;63.50
37298;BME280;30517;51.932;4.278;2023-04-09T08:51:03;102549.34;;;11.72;63.52
37298;BME280;30517;51.932;4.278;2023-04-09T08:53:45;102565.50;;;11.86;63.96
37298;BME280;30517;51.932;4.278;2023-04-09T08:56:27;102526.22;;;11.63;63.95
37298;BME280;30517;51.932;4.278;2023-04-09T08:59:08;102530.69;;;11.66;63.63
37298;BME280;30517;51.932;4.278;2023-04-09T09:02:05;102564.56;;;11.85;63.72
37298;BME280;30517;51.932;4.278;2023-04-09T09:04:48;102570.84;;;11.89;63.64
37298;BME280;30517;51.932;4.278;2023-04-09T09:07:30;102546.81;;;11.80;63.49
37298;BME280;30517;51.932;4.278;2023-04-09T09:10:11;102565.56;;;11.90;63.45
37298;BME280;30517;51.932;4.278;2023-04-09T09:12:51;102536.19;;;11.75;64.01
37298;BME280;30517;51.932;4.278;2023-04-09T09:15:32;102570.03;;;11.91;63.96
37298;BME280;30517;51.932;4.278;2023-04-09T09:18:13;102543.34;;;11.81;63.55
37298;BME280;30517;51.932;4.278;2023-04-09T09:21:08;102567.38;;;11.91;63.76
37298;BME280;30517;51.932;4.278;2023-04-09T09:23:49;102551.47;;;11.90;63.70
37298;BME280;30517;51.932;4.278;2023-04-09T09:26:30;102543.53;;;11.88;63.14
37298;BME280;30517;51.932;4.278;2023-04-09T09:29:11;102546.19;;;11.90;63.81
37298;BME280;30517;51.932;4.278;2023-04-09T09:31:55;102557.75;;;11.95;63.86
37298;BME280;30517;51.932;4.278;2023-04-09T09:34:36;102547.06;;;11.90;64.19
37298;BME280;30517;51.932;4.278;2023-04-09T09:37:26;102546.16;;;11.88;64.08
37298;BME280;30517;51.932;4.278;2023-04-09T09:40:08;102548.09;;;11.97;63.29
37298;BME280;30517;51.932;4.278;2023-04-09T09:42:55;102539.06;;;11.86;63.71
37298;BME280;30517;51.932;4.278;2023-04-09T09:45:37;102539.22;;;11.95;63.71
37298;BME280;30517;51.932;4.278;2023-04-09T09:48:18;102534.88;;;11.99;64.21
37298;BME280;30517;51.932;4.278;2023-04-09T10:05:28;102526.94;;;11.97;63.88
37298;BME280;30517;51.932;4.278;2023-04-09T10:08:09;102524.25;;;11.95;63.50
37298;BME280;30517;51.932;4.278;2023-04-09T10:10:51;102515.44;;;11.95;63.68
37298;BME280;30517;51.932;4.278;2023-04-09T10:13:34;102527.91;;;12.02;63.80
37298;BME280;30517;51.932;4.278;2023-04-09T10:16:16;102516.47;;;12.03;63.91
37298;BME280;30517;51.932;4.278;2023-04-09T10:18:58;102491.59;;;11.93;63.52
37298;BME280;30517;51.932;4.278;2023-04-09T10:22:08;102505.00;;;12.03;63.45
37298;BME280;30517;51.932;4.278;2023-04-09T10:24:50;102510.38;;;12.09;63.01
37298;BME280;30517;51.932;4.278;2023-04-09T10:27:31;102500.69;;;12.09;63.77
37298;BME280;30517;51.932;4.278;2023-04-09T10:30:32;102501.63;;;12.10;63.19
37298;BME280;30517;51.932;4.278;2023-04-09T10:33:14;102503.44;;;12.14;63.32
37298;BME280;30517;51.932;4.278;2023-04-09T10:36:18;102492.84;;;12.14;63.51
37298;BME280;30517;51.932;4.278;2023-04-09T10:39:10;102491.13;;;12.16;63.17
37298;BME280;30517;51.932;4.278;2023-04-09T10:41:53;102490.31;;;12.20;63.67
37298;BME280;30517;51.932;4.278;2023-04-09T10:44:38;102493.88;;;12.22;63.25
37298;BME280;30517;51.932;4.278;2023-04-09T10:47:31;102489.50;;;12.24;63.11
37298;BME280;30517;51.932;4.278;2023-04-09T10:50:13;102478.09;;;12.27;62.99
37298;BME280;30517;51.932;4.278;2023-04-09T10:52:56;102469.25;;;12.26;62.67
37298;BME280;30517;51.932;4.278;2023-04-09T10:55:40;102470.16;;;12.28;62.91
37298;BME280;30517;51.932;4.278;2023-04-09T10:58:23;102466.53;;;12.23;63.34
37298;BME280;30517;51.932;4.278;2023-04-09T11:01:04;102471.13;;;12.33;62.68
37298;BME280;30517;51.932;4.278;2023-04-09T11:03:45;102474.59;;;12.29;62.99
37298;BME280;30517;51.932;4.278;2023-04-09T11:06:45;102466.75;;;12.35;62.81
37298;BME280;30517;51.932;4.278;2023-04-09T11:09:27;102468.66;;;12.43;62.63
37298;BME280;30517;51.932;4.278;2023-04-09T11:12:10;102459.88;;;12.47;63.17
37298;BME280;30517;51.932;4.278;2023-04-09T11:14:51;102471.41;;;12.50;62.89
37298;BME280;30517;51.932;4.278;2023-04-09T11:17:35;102459.97;;;12.53;63.13
37298;BME280;30517;51.932;4.278;2023-04-09T11:20:19;102454.75;;;12.56;63.39
37298;BME280;30517;51.932;4.278;2023-04-09T11:23:01;102436.06;;;12.47;62.79
37298;BME280;30517;51.932;4.278;2023-04-09T11:25:47;102451.25;;;12.60;62.99
37298;BME280;30517;51.932;4.278;2023-04-09T11:28:29;102450.41;;;12.62;62.94
37298;BME280;30517;51.932;4.278;2023-04-09T11:31:10;102454.00;;;12.66;62.45
37298;BME280;30517;51.932;4.278;2023-04-09T11:33:51;102430.94;;;12.57;62.80
37298;BME280;30517;51.932;4.278;2023-04-09T11:36:33;102442.59;;;12.70;62.91
37298;BME280;30517;51.932;4.278;2023-04-09T11:39:14;102437.28;;;12.70;62.71
37298;BME280;30517;51.932;4.278;2023-04-09T11:41:55;102441.78;;;12.76;62.53
37298;BME280;30517;51.932;4.278;2023-04-09T11:44:36;102437.41;;;12.78;62.45
37298;BME280;30517;51.932;4.278;2023-04-09T11:47:18;102430.41;;;12.83;62.88
37298;BME280;30517;51.932;4.278;2023-04-09T11:49:59;102422.50;;;12.86;62.68
37298;BME280;30517;51.932;4.278;2023-04-09T11:52:41;102414.53;;;12.84;62.94
37298;BME280;30517;51.932;4.278;2023-04-09T11:55:27;102425.25;;;12.92;63.11
37298;BME280;30517;51.932;4.278;2023-04-09T11:58:09;102418.97;;;12.87;62.52
37298;BME280;30517;51.932;4.278;2023-04-09T12:00:54;102439.47;;;12.99;62.44
37298;BME280;30517;51.932;4.278;2023-04-09T12:03:35;102439.50;;;13.02;62.97
37298;BME280;30517;51.932;4.278;2023-04-09T12:06:19;102428.00;;;13.00;62.92
37298;BME280;30517;51.932;4.278;2023-04-09T12:09:03;102413.88;;;13.01;62.67
37298;BME280;30517;51.932;4.278;2023-04-09T12:11:44;102355.25;;;12.73;62.92
37298;BME280;30517;51.932;4.278;2023-04-09T12:14:26;102427.31;;;13.16;63.00
37298;BME280;30517;51.932;4.278;2023-04-09T12:17:07;102430.00;;;13.19;63.19
37298;BME280;30517;51.932;4.278;2023-04-09T12:19:48;102426.47;;;13.20;62.71
37298;BME280;30517;51.932;4.278;2023-04-09T12:22:29;102387.38;;;12.99;62.68
37298;BME280;30517;51.932;4.278;2023-04-09T12:25:10;102439.91;;;13.33;62.80
37298;BME280;30517;51.932;4.278;2023-04-09T12:27:51;102424.00;;;13.33;62.96
37298;BME280;30517;51.932;4.278;2023-04-09T12:30:34;102422.28;;;13.36;62.66
37298;BME280;30517;51.932;4.278;2023-04-09T12:33:15;102394.78;;;13.26;62.98
37298;BME280;30517;51.932;4.278;2023-04-09T12:35:56;102421.53;;;13.49;62.98
37298;BME280;30517;51.932;4.278;2023-04-09T12:38:37;102420.72;;;13.55;63.02
37298;BME280;30517;51.932;4.278;2023-04-09T12:41:18;102429.59;;;13.60;63.02
37298;BME280;30517;51.932;4.278;2023-04-09T12:43:59;102424.31;;;13.63;62.59
37298;BME280;30517;51.932;4.278;2023-04-09T12:46:42;102399.50;;;13.55;62.86
37298;BME280;30517;51.932;4.278;2023-04-09T12:49:23;102414.72;;;13.73;62.56
37298;BME280;30517;51.932;4.278;2023-04-09T12:52:04;102407.66;;;13.72;62.42
37298;BME280;30517;51.932;4.278;2023-04-09T12:54:45;102405.09;;;13.83;62.30
37298;BME280;30517;51.932;4.278;2023-04-09T12:57:27;102403.34;;;13.86;62.48
37298;BME280;30517;51.932;4.278;2023-04-09T13:00:08;102398.06;;;13.89;62.11
37298;BME280;30517;51.932;4.278;2023-04-09T13:02:49;102398.09;;;13.91;62.38
37298;BME280;30517;51.932;4.278;2023-04-09T13:05:31;102400.84;;;14.02;62.11
37298;BME280;30517;51.932;4.278;2023-04-09T13:08:14;102407.97;;;14.12;62.19
37298;BME280;30517;51.932;4.278;2023-04-09T13:10:55;102413.34;;;14.15;62.03
37298;BME280;30517;51.932;4.278;2023-04-09T13:13:36;102387.59;;;14.05;62.36
37298;BME280;30517;51.932;4.278;2023-04-09T13:16:17;102414.28;;;14.25;62.02
37298;BME280;30517;51.932;4.278;2023-04-09T13:18:58;102388.56;;;14.16;62.07
37298;BME280;30517;51.932;4.278;2023-04-09T13:21:39;102389.53;;;14.29;61.64
37298;BME280;30517;51.932;4.278;2023-04-09T13:24:19;102387.78;;;14.32;62.13
37298;BME280;30517;51.932;4.278;2023-04-09T13:27:02;102388.72;;;14.41;61.92
37298;BME280;30517;51.932;4.278;2023-04-09T13:29:42;102392.34;;;14.50;61.82
37298;BME280;30517;51.932;4.278;2023-04-09T13:32:23;102356.84;;;14.39;61.97
37298;BME280;30517;51.932;4.278;2023-04-09T13:35:05;102350.72;;;14.46;61.97
37298;BME280;30517;51.932;4.278;2023-04-09T13:37:46;102342.75;;;14.48;61.62
37298;BME280;30517;51.932;4.278;2023-04-09T13:40:27;102368.56;;;14.69;61.66
37298;BME280;30517;51.932;4.278;2023-04-09T13:43:08;102375.66;;;14.73;61.59
37298;BME280;30517;51.932;4.278;2023-04-09T13:45:49;102357.06;;;14.71;61.81
37298;BME280;30517;51.932;4.278;2023-04-09T13:48:30;102339.34;;;14.70;61.47
37298;BME280;30517;51.932;4.278;2023-04-09T13:51:10;102314.56;;;14.68;61.53
37298;BME280;30517;51.932;4.278;2023-04-09T13:53:51;102334.13;;;14.86;61.56
37298;BME280;30517;51.932;4.278;2023-04-09T13:56:32;102314.59;;;14.77;61.75
37298;BME280;30517;51.932;4.278;2023-04-09T13:59:13;102331.47;;;14.90;61.59
37298;BME280;30517;51.932;4.278;2023-04-09T14:01:54;102322.63;;;14.96;61.61
37298;BME280;30517;51.932;4.278;2023-04-09T14:04:35;102317.31;;;15.00;61.57
37298;BME280;30517;51.932;4.278;2023-04-09T14:07:16;102298.75;;;14.99;61.49
37298;BME280;30517;51.932;4.278;2023-04-09T14:09:57;102297.00;;;15.07;61.55
37298;BME280;30517;51.932;4.278;2023-04-09T14:12:37;102295.19;;;15.06;61.70
37298;BME280;30517;51.932;4.278;2023-04-09T14:15:18;102308.50;;;15.17;61.59
37298;BME280;30517;51.932;4.278;2023-04-09T14:17:59;102286.34;;;15.09;61.29
37298;BME280;30517;51.932;4.278;2023-04-09T14:20:40;102300.56;;;15.26;61.37
37298;BME280;30517;51.932;4.278;2023-04-09T14:23:21;102281.03;;;15.25;61.39